createdAt,value
2022-11-16T00:00:02.895Z,4123
2022-11-16T00:05:11.106Z,4045
2022-11-16T00:10:23.690Z,4142
2022-11-16T00:15:35.875Z,4125
2022-11-16T00:20:48.430Z,4103
2022-11-16T00:26:00.713Z,4105
2022-11-16T00:31:13.043Z,4103
2022-11-16T00:36:25.462Z,4140
2022-11-16T00:41:37.753Z,4095
2022-11-16T00:46:50.095Z,4123
2022-11-16T00:52:02.443Z,4108
2022-11-16T00:57:15.182Z,4106
2022-11-16T01:02:27.444Z,4136
2022-11-16T01:07:39.879Z,4108
2022-11-16T01:12:52.170Z,4136
2022-11-16T01:18:04.412Z,4092
2022-11-16T01:23:16.749Z,4103
2022-11-16T01:28:29.225Z,4086
2022-11-16T01:33:41.524Z,4136
2022-11-16T01:38:53.971Z,4116
2022-11-16T01:44:06.361Z,4121
2022-11-16T01:49:18.809Z,4134
2022-11-16T01:54:31.013Z,4119
2022-11-16T01:59:43.493Z,4090
2022-11-16T02:04:55.885Z,4134
2022-11-16T02:10:08.297Z,4134
2022-11-16T02:15:20.550Z,4118
2022-11-16T02:20:32.850Z,4118
2022-11-16T02:25:45.184Z,4095
2022-11-16T02:30:57.633Z,4119
2022-11-16T02:36:09.793Z,4116
2022-11-16T02:41:22.134Z,4090
2022-11-16T02:46:34.802Z,4118
2022-11-16T02:51:46.991Z,4105
2022-11-16T02:56:59.617Z,4069
2022-11-16T03:02:12.075Z,4132
2022-11-16T03:07:24.501Z,4110
2022-11-16T03:12:36.691Z,4131
2022-11-16T03:17:49.058Z,4101
2022-11-16T03:23:01.126Z,4073
2022-11-16T03:33:25.808Z,4084
2022-11-16T03:38:38.196Z,4125
2022-11-16T03:43:50.611Z,4112
2022-11-16T03:49:02.921Z,4101
2022-11-16T03:54:15.269Z,4075
2022-11-16T03:59:27.623Z,4121
2022-11-16T04:04:39.715Z,4105
2022-11-16T04:09:52.324Z,4123
2022-11-16T04:15:04.668Z,4105
2022-11-16T04:20:16.917Z,4071
2022-11-16T04:25:29.109Z,4106
2022-11-16T04:30:41.535Z,4090
2022-11-16T04:35:53.944Z,3989
2022-11-16T04:41:06.481Z,4084
2022-11-16T04:46:18.915Z,4093
2022-11-16T04:51:31.263Z,4099
2022-11-16T04:56:43.694Z,4103
2022-11-16T05:01:56.288Z,4118
2022-11-16T05:07:08.758Z,4060
2022-11-16T05:12:21.068Z,4093
2022-11-16T05:17:33.381Z,4071
2022-11-16T05:22:45.817Z,4052
2022-11-16T05:27:58.218Z,4116
2022-11-16T05:33:10.469Z,4088
2022-11-16T05:38:22.810Z,4051
2022-11-16T05:43:35.207Z,4065
2022-11-16T05:48:47.521Z,4062
2022-11-16T05:54:00.227Z,4114
2022-11-16T05:59:16.408Z,4064
2022-11-16T06:04:25.166Z,4112
2022-11-16T06:09:37.311Z,4088
2022-11-16T06:14:49.629Z,4086
2022-11-16T06:20:02.201Z,4093
2022-11-16T06:25:14.259Z,4067
2022-11-16T06:30:26.460Z,4084
2022-11-16T06:35:39.118Z,4092
2022-11-16T06:40:51.114Z,4065
2022-11-16T06:46:03.454Z,4075
2022-11-16T06:51:15.873Z,4080
2022-11-16T06:56:28.014Z,4086
2022-11-16T07:01:40.425Z,4088
2022-11-16T07:06:53.267Z,4060
2022-11-16T07:12:05.226Z,4101
2022-11-16T07:17:17.724Z,4047
2022-11-16T07:22:30.185Z,4103
2022-11-16T07:27:42.481Z,4051
2022-11-16T07:32:54.565Z,4075
2022-11-16T07:38:07.173Z,4065
2022-11-16T07:43:19.425Z,4047
2022-11-16T07:48:31.960Z,4065
2022-11-16T07:53:44.019Z,4101
2022-11-16T07:58:56.415Z,4064
2022-11-16T08:04:08.743Z,4097
2022-11-16T08:09:21.097Z,4095
2022-11-16T08:14:33.393Z,4052
2022-11-16T08:19:45.717Z,4034
2022-11-16T08:24:58.059Z,4036
2022-11-16T08:30:10.381Z,4075
2022-11-16T08:35:22.774Z,4090
2022-11-16T08:40:35.236Z,3974
2022-11-16T08:45:47.436Z,4073
2022-11-16T08:51:16.775Z,4082
2022-11-16T08:56:12.429Z,3993
2022-11-16T09:01:24.649Z,4086
2022-11-16T09:06:36.801Z,4086
2022-11-16T09:11:49.274Z,4082
2022-11-16T09:17:01.567Z,4082
2022-11-16T09:22:13.883Z,4038
2022-11-16T09:27:26.401Z,4052
2022-11-16T09:32:38.477Z,4080
2022-11-16T09:37:50.970Z,4021
2022-11-16T09:43:03.320Z,4012
2022-11-16T09:48:15.592Z,4058
2022-11-16T09:53:27.844Z,4043
2022-11-16T09:58:40.356Z,4078
2022-11-16T10:03:52.479Z,4073
2022-11-16T10:09:04.757Z,4056
2022-11-16T10:14:17.031Z,4026
2022-11-16T10:19:29.324Z,4077
2022-11-16T10:24:41.644Z,4075
2022-11-16T10:29:54.031Z,4075
2022-11-16T10:35:06.497Z,4045
2022-11-16T10:40:18.758Z,3985
2022-11-16T10:45:31.122Z,3987
2022-11-16T10:50:43.592Z,4049
2022-11-16T10:55:55.828Z,4071
2022-11-16T11:01:08.356Z,4069
2022-11-16T11:06:20.566Z,4052
2022-11-16T11:11:32.716Z,4069
2022-11-16T11:16:45.206Z,4069
2022-11-16T11:21:57.335Z,3995
2022-11-16T11:27:09.655Z,4056
2022-11-16T11:32:24.345Z,4030
2022-11-16T11:37:34.121Z,4036
2022-11-16T11:42:46.514Z,4034
2022-11-16T11:53:11.352Z,4025
2022-11-16T11:58:23.884Z,4000
2022-11-16T12:03:36.496Z,4000
2022-11-16T12:08:48.423Z,4060
2022-11-16T12:14:00.753Z,3995
2022-11-16T12:19:13.105Z,3945
2022-11-16T12:24:26.485Z,4026
2022-11-16T12:29:38.957Z,4041
2022-11-16T12:34:51.495Z,3995
2022-11-16T12:40:03.454Z,4056
2022-11-16T12:45:15.721Z,3965
2022-11-16T12:50:28.139Z,3961
2022-11-16T12:55:40.378Z,4054
2022-11-16T13:00:52.696Z,4023
2022-11-16T13:06:04.922Z,3989
2022-11-16T13:11:17.331Z,4045
2022-11-16T13:16:29.873Z,3997
2022-11-16T13:21:42.316Z,4051
2022-11-16T13:26:54.502Z,4049
2022-11-16T13:32:06.812Z,4034
2022-11-16T13:37:19.443Z,3933
2022-11-16T13:42:31.767Z,4010
2022-11-16T13:47:44.117Z,3985
2022-11-16T13:58:08.882Z,4015
2022-11-16T14:03:21.196Z,4015
2022-11-16T14:08:33.664Z,4041
2022-11-16T14:13:46.033Z,4045
2022-11-16T14:18:58.268Z,4043
2022-11-16T14:24:10.839Z,4008
2022-11-16T14:29:22.990Z,4041
2022-11-16T14:34:35.312Z,3939
2022-11-16T14:39:47.712Z,3958
2022-11-16T14:45:00.164Z,4012
2022-11-16T14:50:12.491Z,4041
2022-11-16T14:55:25.239Z,4000
2022-11-16T15:00:37.642Z,3956
2022-11-16T15:05:49.871Z,3991
2022-11-16T15:11:02.236Z,3972
2022-11-16T15:16:14.880Z,3898
2022-11-16T15:21:27.004Z,3926
2022-11-16T15:26:39.272Z,3971
2022-11-16T15:31:51.897Z,3987
2022-11-16T15:37:04.138Z,4000
2022-11-16T15:42:16.477Z,4008
2022-11-16T15:47:28.686Z,4000
2022-11-16T15:52:40.985Z,4008
2022-11-16T15:57:53.541Z,3959
2022-11-16T16:03:05.931Z,4004
2022-11-16T16:08:18.251Z,4026
2022-11-16T16:13:30.751Z,4000
2022-11-16T16:18:43.055Z,4012
2022-11-16T16:23:55.413Z,3993
2022-11-16T16:29:07.887Z,3937
2022-11-16T16:34:20.191Z,3991
2022-11-16T16:39:32.626Z,3930
2022-11-16T16:44:45.224Z,3946
2022-11-16T16:49:57.588Z,4025
2022-11-16T16:55:09.948Z,3989
2022-11-16T17:00:22.330Z,3961
2022-11-16T17:05:34.466Z,4002
2022-11-16T17:10:46.675Z,4000
2022-11-16T17:15:59.008Z,4019
2022-11-16T17:21:11.279Z,3965
2022-11-16T17:26:23.555Z,3984
2022-11-16T17:31:35.884Z,4019
2022-11-16T17:36:48.079Z,3984
2022-11-16T17:42:00.398Z,3924
2022-11-16T17:47:12.716Z,3928
2022-11-16T17:52:24.951Z,3967
2022-11-16T17:57:37.296Z,4019
2022-11-16T18:02:49.720Z,3820
2022-11-16T18:08:02.299Z,4017
2022-11-16T18:13:14.623Z,3868
2022-11-16T18:18:27.087Z,4008
2022-11-16T18:23:39.283Z,4013
2022-11-16T18:28:52.037Z,3956
2022-11-16T18:34:09.333Z,3913
2022-11-16T18:39:16.776Z,4015
2022-11-16T18:44:29.088Z,3807
2022-11-16T18:49:41.593Z,3943
2022-11-16T18:54:53.771Z,3991
2022-11-16T19:00:06.052Z,3974
2022-11-16T19:05:18.615Z,3956
2022-11-16T19:10:30.869Z,3881
2022-11-16T19:15:43.465Z,3879
2022-11-16T19:20:56.097Z,3904
2022-11-16T19:26:08.595Z,3997
2022-11-16T19:31:20.895Z,3965
2022-11-16T19:36:33.379Z,3974
2022-11-16T19:41:45.496Z,4008
2022-11-16T19:46:57.806Z,3924
2022-11-16T19:52:10.246Z,3922
2022-11-16T19:57:22.673Z,3978
2022-11-16T20:07:47.695Z,3984
2022-11-16T20:12:59.874Z,3959
2022-11-16T20:18:12.068Z,4004
2022-11-16T20:23:24.569Z,3982
2022-11-16T20:28:36.746Z,3876
2022-11-16T20:33:49.300Z,3959
2022-11-16T20:39:01.539Z,3909
2022-11-16T20:44:16.439Z,4002
2022-11-16T20:49:25.989Z,4002
2022-11-16T20:54:38.498Z,3959
2022-11-16T20:59:50.692Z,3950
2022-11-16T21:05:03.028Z,3999
2022-11-16T21:10:15.501Z,3945
2022-11-16T21:15:27.912Z,3959
2022-11-16T21:20:40.234Z,3985
2022-11-16T21:25:52.869Z,3956
2022-11-16T21:31:05.152Z,3930
2022-11-16T21:36:17.409Z,3885
2022-11-16T21:41:30.065Z,3971
2022-11-16T21:46:42.245Z,3969
2022-11-16T21:51:54.365Z,3904
2022-11-16T21:57:07.003Z,3898
2022-11-16T22:02:19.431Z,3952
2022-11-16T22:07:31.907Z,3907
2022-11-16T22:12:44.410Z,3971
2022-11-16T22:17:56.807Z,3987
2022-11-16T22:23:09.022Z,3985
2022-11-16T22:28:21.591Z,3924
2022-11-16T22:33:33.780Z,3946
2022-11-16T22:38:45.690Z,3898
2022-11-16T22:43:58.031Z,3969
2022-11-16T22:49:10.215Z,3907
2022-11-16T22:54:25.930Z,3954
2022-11-16T22:59:34.564Z,3930
2022-11-16T23:04:46.890Z,3982
2022-11-16T23:09:59.171Z,3883
2022-11-16T23:15:11.804Z,3980
2022-11-16T23:20:24.147Z,3980
2022-11-16T23:25:36.476Z,3865
2022-11-16T23:30:48.835Z,3883
2022-11-16T23:36:01.234Z,3939
2022-11-16T23:41:13.389Z,3753
2022-11-16T23:46:25.882Z,3952
2022-11-16T23:51:38.057Z,3976
2022-11-16T23:56:50.532Z,3974
